Time;durP1;ratioP1;P1;durP2;ratioP2;P2;SDS_P1;SDS_P2;PMS_P1;PMS_P2;Temp;Humidity;BMP_temperature;BMP_pressure;BME280_temperature;BME280_humidity;BME280_pressure;Samples;Min_cycle;Max_cycle;Signal;HPM_P1;HPM_P2
2020/12/07 00:01:00;;;;;;;58.50;31.08;;;3.00;99.90;;;;;;5035580;28;20083;-85
2020/12/07 00:03:28;;;;;;;61.03;31.35;;;3.10;99.90;;;;;;5033942;28;20060;-85
2020/12/07 00:05:54;;;;;;;60.38;32.40;;;3.10;99.90;;;;;;5034172;28;20129;-85
2020/12/07 00:08:20;;;;;;;59.65;32.13;;;3.10;99.90;;;;;;5035506;28;20158;-85
2020/12/07 00:10:46;;;;;;;61.75;31.90;;;3.20;99.90;;;;;;5033911;28;20080;-85
2020/12/07 00:13:13;;;;;;;59.30;32.25;;;3.20;99.90;;;;;;5033670;28;20120;-85
2020/12/07 00:15:39;;;;;;;62.58;33.08;;;3.20;99.90;;;;;;5033758;28;20467;-85
2020/12/07 00:18:05;;;;;;;56.08;32.25;;;3.20;99.90;;;;;;5033505;28;20084;-85
2020/12/07 00:20:31;;;;;;;58.42;30.98;;;3.20;99.90;;;;;;5033513;28;20136;-86
2020/12/07 00:22:58;;;;;;;59.88;31.38;;;3.20;99.90;;;;;;5033675;28;20092;-85
2020/12/07 00:25:24;;;;;;;60.08;30.52;;;3.10;99.90;;;;;;5034813;28;20317;-85
2020/12/07 00:27:50;;;;;;;57.25;29.67;;;3.20;99.90;;;;;;5033045;28;20053;-85
2020/12/07 00:30:17;;;;;;;54.83;29.15;;;3.20;99.90;;;;;;5033121;28;20088;-85
2020/12/07 00:32:43;;;;;;;57.50;30.88;;;3.20;99.90;;;;;;5033047;28;20570;-85
2020/12/07 00:35:09;;;;;;;61.00;30.05;;;3.20;99.90;;;;;;5033380;28;20045;-85
2020/12/07 00:37:35;;;;;;;51.33;28.90;;;3.20;99.90;;;;;;5032897;28;20069;-85
2020/12/07 00:40:03;;;;;;;50.22;27.52;;;3.30;99.90;;;;;;5033137;28;20124;-85
2020/12/07 00:42:29;;;;;;;55.20;29.08;;;3.30;99.90;;;;;;5032368;28;20474;-85
2020/12/07 00:44:55;;;;;;;65.88;30.92;;;3.30;99.90;;;;;;5034096;28;20112;-85
2020/12/07 00:47:21;;;;;;;54.53;30.23;;;3.20;99.90;;;;;;5032890;28;20080;-85
2020/12/07 00:49:48;;;;;;;64.10;31.00;;;3.10;99.90;;;;;;5032835;28;20085;-84
2020/12/07 00:52:14;;;;;;;64.85;32.47;;;3.20;99.90;;;;;;5032767;28;20486;-84
2020/12/07 00:54:40;;;;;;;67.90;32.63;;;3.00;99.90;;;;;;5033652;28;20055;-84
2020/12/07 00:57:06;;;;;;;54.70;29.65;;;2.90;99.90;;;;;;5032473;28;20092;-85
2020/12/07 00:59:33;;;;;;;61.72;31.08;;;2.90;99.90;;;;;;5042772;28;20517;-85
2020/12/07 01:02:00;;;;;;;54.25;29.17;;;3.10;99.90;;;;;;5033168;28;20111;-85
2020/12/07 01:04:27;;;;;;;56.83;28.88;;;3.20;99.90;;;;;;5033930;28;20119;-85
2020/12/07 01:06:53;;;;;;;50.33;28.42;;;3.30;99.90;;;;;;5032535;28;20128;-85
2020/12/07 01:09:21;;;;;;;52.97;28.75;;;3.30;99.90;;;;;;5032167;28;20107;-84
2020/12/07 01:11:54;;;;;;;59.85;28.75;;;3.40;99.90;;;;;;5032624;28;20131;-84
2020/12/07 01:14:21;;;;;;;53.05;28.88;;;3.40;99.90;;;;;;5031951;28;20582;-84
2020/12/07 01:16:49;;;;;;;51.80;29.85;;;3.50;99.90;;;;;;5032262;28;20132;-85
2020/12/07 01:19:15;;;;;;;53.85;28.70;;;3.40;99.90;;;;;;5031751;28;20091;-84
2020/12/07 01:21:41;;;;;;;59.90;29.17;;;3.40;99.90;;;;;;5032076;28;20072;-85
2020/12/07 01:24:08;;;;;;;57.40;28.98;;;3.30;99.90;;;;;;5032166;28;20080;-85
2020/12/07 01:26:34;;;;;;;60.60;30.38;;;3.30;99.90;;;;;;5033079;28;20117;-86
2020/12/07 01:29:02;;;;;;;57.30;29.77;;;3.20;99.90;;;;;;5034427;28;20149;-86
2020/12/07 01:31:29;;;;;;;57.80;29.67;;;3.30;99.90;;;;;;5032865;28;20061;-85
2020/12/07 01:33:56;;;;;;;53.60;29.27;;;3.30;99.90;;;;;;5052286;28;20514;-84
2020/12/07 01:36:23;;;;;;;51.08;28.70;;;3.30;99.90;;;;;;5036995;28;20136;-84
2020/12/07 01:38:49;;;;;;;56.40;30.30;;;3.40;99.90;;;;;;5037262;28;20637;-84
2020/12/07 01:41:15;;;;;;;66.47;33.33;;;3.40;99.90;;;;;;5036714;28;20061;-84
2020/12/07 01:43:42;;;;;;;61.95;30.73;;;3.20;99.90;;;;;;5037692;28;20060;-84
2020/12/07 01:46:09;;;;;;;58.83;31.48;;;3.10;99.90;;;;;;5037010;28;20079;-84
2020/12/07 01:48:36;;;;;;;59.78;30.00;;;3.30;99.90;;;;;;5037154;28;20045;-84
2020/12/07 01:51:03;;;;;;;56.85;30.73;;;3.40;99.90;;;;;;5036921;28;20052;-84
2020/12/07 01:53:31;;;;;;;61.47;31.05;;;3.40;99.90;;;;;;5036525;28;20135;-84
2020/12/07 01:55:57;;;;;;;57.70;28.92;;;3.40;99.90;;;;;;5040089;28;20047;-84
2020/12/07 01:58:23;;;;;;;52.25;27.42;;;3.50;99.90;;;;;;5040585;28;20084;-84
2020/12/07 02:00:49;;;;;;;58.30;27.50;;;3.50;99.90;;;;;;5041170;28;20083;-84
2020/12/07 02:03:15;;;;;;;56.20;27.88;;;3.50;99.90;;;;;;5040437;28;20072;-85
2020/12/07 02:05:42;;;;;;;52.42;28.48;;;3.50;99.90;;;;;;5040049;28;20127;-84
2020/12/07 02:08:12;;;;;;;55.20;27.77;;;3.50;99.90;;;;;;5058040;28;20067;-84
2020/12/07 02:10:39;;;;;;;50.33;27.15;;;3.40;99.90;;;;;;5040476;28;20137;-84
2020/12/07 02:13:05;;;;;;;49.60;27.70;;;3.30;99.90;;;;;;5040255;28;20056;-84
2020/12/07 02:15:32;;;;;;;46.75;26.35;;;3.30;99.90;;;;;;5058244;28;20509;-84
2020/12/07 02:18:00;;;;;;;48.47;28.58;;;3.30;99.90;;;;;;5040186;28;20049;-86
2020/12/07 02:20:26;;;;;;;44.22;27.58;;;3.30;99.90;;;;;;5040499;28;20506;-85
2020/12/07 02:22:53;;;;;;;48.08;28.00;;;3.30;99.90;;;;;;5040214;28;20076;-84
2020/12/07 02:25:20;;;;;;;49.83;27.40;;;3.30;99.90;;;;;;5040409;28;20045;-84
2020/12/07 02:27:51;;;;;;;43.15;26.67;;;3.40;99.90;;;;;;5058368;28;20081;-84
2020/12/07 02:30:18;;;;;;;45.45;26.80;;;3.40;99.90;;;;;;5040751;28;20049;-84
2020/12/07 02:32:45;;;;;;;43.88;26.42;;;3.50;99.90;;;;;;5040329;28;20105;-84
2020/12/07 02:35:13;;;;;;;46.08;27.00;;;3.50;99.90;;;;;;5039649;28;20077;-84
2020/12/07 02:37:40;;;;;;;44.40;26.33;;;3.50;99.90;;;;;;5039585;28;20140;-85
2020/12/07 02:40:08;;;;;;;42.78;26.55;;;3.50;99.90;;;;;;5039726;28;20111;-84
2020/12/07 02:42:36;;;;;;;45.28;25.27;;;3.50;99.90;;;;;;5039850;28;20059;-85
2020/12/07 02:45:08;;;;;;;42.33;26.45;;;3.50;99.90;;;;;;5040068;28;20073;-84
2020/12/07 02:47:35;;;;;;;49.08;27.38;;;3.40;99.90;;;;;;5039392;28;20144;-84
2020/12/07 02:50:01;;;;;;;45.65;27.33;;;3.50;99.90;;;;;;5039975;28;20159;-84
2020/12/07 02:52:28;;;;;;;59.85;29.70;;;3.50;99.90;;;;;;5057474;28;20076;-84
2020/12/07 02:54:57;;;;;;;56.45;33.60;;;3.50;99.90;;;;;;5041252;28;20068;-84
2020/12/07 02:57:23;;;;;;;53.42;32.55;;;3.70;99.90;;;;;;5042404;28;20044;-85
2020/12/07 02:59:50;;;;;;;49.35;29.70;;;4.00;99.90;;;;;;5042729;28;20049;-84
2020/12/07 03:02:17;;;;;;;48.35;29.00;;;4.30;99.90;;;;;;5060253;28;20079;-84
2020/12/07 03:04:43;;;;;;;42.80;25.77;;;4.60;99.90;;;;;;5059881;28;20088;-85
2020/12/07 03:07:10;;;;;;;38.13;23.60;;;4.80;99.90;;;;;;5042966;28;20060;-85
2020/12/07 03:09:36;;;;;;;36.75;22.92;;;4.90;99.90;;;;;;5043109;28;20056;-85
2020/12/07 03:12:03;;;;;;;39.45;23.00;;;4.90;99.90;;;;;;5043511;28;20107;-85
2020/12/07 03:14:30;;;;;;;36.05;22.00;;;4.90;99.90;;;;;;5067905;22;20033;-80
2020/12/07 03:16:56;;;;;;;33.25;20.42;;;4.90;99.90;;;;;;5099758;28;20052;-83
2020/12/07 03:19:23;;;;;;;31.55;19.58;;;4.90;99.90;;;;;;5099268;28;20053;-80
2020/12/07 03:21:49;;;;;;;29.75;19.10;;;4.90;99.90;;;;;;5092510;28;20052;-84
2020/12/07 03:24:16;;;;;;;31.55;19.65;;;4.70;99.90;;;;;;5081515;28;20079;-84
2020/12/07 03:26:42;;;;;;;29.92;18.95;;;4.70;99.90;;;;;;5079578;28;20135;-84
2020/12/07 03:29:09;;;;;;;28.02;18.67;;;4.60;99.90;;;;;;5079814;28;20048;-84
2020/12/07 03:31:37;;;;;;;29.17;17.27;;;4.60;99.90;;;;;;5079469;28;20080;-84
2020/12/07 03:34:05;;;;;;;26.02;16.27;;;4.50;99.90;;;;;;5079508;28;20173;-84
2020/12/07 03:36:31;;;;;;;24.25;16.65;;;4.50;99.90;;;;;;5080058;28;20095;-85
2020/12/07 03:38:59;;;;;;;21.67;14.70;;;4.40;99.90;;;;;;5079754;28;20105;-84
2020/12/07 03:41:25;;;;;;;21.50;14.65;;;4.40;99.90;;;;;;5078192;28;20088;-83
2020/12/07 03:43:51;;;;;;;23.95;14.48;;;4.40;99.90;;;;;;5078617;28;20052;-84
2020/12/07 03:46:18;;;;;;;23.70;14.77;;;4.30;99.90;;;;;;5080195;28;20574;-83
2020/12/07 03:48:44;;;;;;;22.63;13.48;;;4.30;99.90;;;;;;5078336;28;20087;-84
2020/12/07 03:51:10;;;;;;;19.27;11.73;;;4.30;99.90;;;;;;5079491;28;20493;-84
2020/12/07 03:53:38;;;;;;;17.77;11.35;;;4.30;99.90;;;;;;5078594;28;20048;-84
2020/12/07 03:56:06;;;;;;;17.08;10.32;;;4.30;99.90;;;;;;5077887;28;20505;-84
2020/12/07 03:58:33;;;;;;;19.77;11.43;;;4.20;99.90;;;;;;5078630;28;20116;-83
2020/12/07 04:01:00;;;;;;;15.45;10.52;;;4.20;99.90;;;;;;5076660;28;20501;-84
2020/12/07 04:03:27;;;;;;;15.32;10.02;;;4.20;99.90;;;;;;5078012;28;20045;-84
2020/12/07 04:06:03;;;;;;;14.25;9.63;;;4.20;99.90;;;;;;5078023;28;20071;-84
2020/12/07 04:08:30;;;;;;;12.75;8.60;;;4.20;99.90;;;;;;5076190;28;20052;-84
2020/12/07 04:10:56;;;;;;;12.18;8.82;;;4.10;99.90;;;;;;5076755;28;20044;-84
2020/12/07 04:13:23;;;;;;;14.13;8.50;;;4.10;99.90;;;;;;5076559;28;20508;-84
2020/12/07 04:15:49;;;;;;;12.50;7.80;;;4.10;99.90;;;;;;5077149;28;20072;-83
2020/12/07 04:18:26;;;;;;;10.15;7.15;;;4.10;99.90;;;;;;5091583;28;20386;-83
2020/12/07 04:20:54;;;;;;;9.18;7.15;;;4.00;99.90;;;;;;5079090;28;20052;-84
2020/12/07 04:23:21;;;;;;;7.85;5.90;;;3.90;99.90;;;;;;5078460;28;20462;-84
2020/12/07 04:25:47;;;;;;;7.50;6.03;;;3.90;99.90;;;;;;5078253;28;20060;-84
2020/12/07 04:28:13;;;;;;;6.00;4.85;;;3.80;99.90;;;;;;5094483;28;20053;-84
2020/12/07 04:30:40;;;;;;;5.93;4.65;;;3.70;99.90;;;;;;5076891;28;20416;-84
2020/12/07 04:33:07;;;;;;;5.70;4.93;;;3.60;99.90;;;;;;5077355;28;20052;-83
2020/12/07 04:35:34;;;;;;;6.70;5.07;;;3.60;99.90;;;;;;5077874;28;20045;-84
2020/12/07 04:38:01;;;;;;;4.38;3.92;;;3.60;99.90;;;;;;5076072;28;20048;-84
2020/12/07 04:40:28;;;;;;;3.50;3.20;;;3.50;99.90;;;;;;5075273;28;20132;-84
2020/12/07 04:42:56;;;;;;;3.15;2.90;;;3.50;99.90;;;;;;5076045;28;20095;-84
2020/12/07 04:45:23;;;;;;;3.15;2.88;;;3.40;99.90;;;;;;5077233;28;20084;-84
2020/12/07 04:47:51;;;;;;;3.13;2.83;;;3.40;99.90;;;;;;5077652;28;20140;-83
2020/12/07 04:50:20;;;;;;;2.97;2.60;;;3.50;99.90;;;;;;5075027;28;20083;-84
2020/12/07 04:52:50;;;;;;;3.10;2.80;;;3.50;99.90;;;;;;5077246;28;20048;-84
2020/12/07 04:55:17;;;;;;;3.05;2.75;;;3.50;99.90;;;;;;5077581;28;20483;-84
2020/12/07 04:57:44;;;;;;;4.05;3.20;;;3.50;99.90;;;;;;5075882;28;20135;-83
2020/12/07 05:00:11;;;;;;;4.20;3.55;;;3.50;99.90;;;;;;5075159;28;20080;-83
2020/12/07 05:02:37;;;;;;;3.70;3.30;;;3.50;99.90;;;;;;5075346;28;20052;-83
2020/12/07 05:05:06;;;;;;;5.55;3.72;;;3.50;99.90;;;;;;5075509;28;20048;-82
2020/12/07 05:07:33;;;;;;;4.95;3.40;;;3.50;99.90;;;;;;5073069;28;20059;-83
2020/12/07 05:10:12;;;;;;;4.05;3.60;;;3.50;99.90;;;;;;5072073;28;20048;-82
2020/12/07 05:12:43;;;;;;;4.70;3.33;;;3.50;99.90;;;;;;5072008;28;20095;-84
2020/12/07 05:15:12;;;;;;;4.18;3.08;;;3.50;99.90;;;;;;5071875;28;20049;-82
2020/12/07 05:17:39;;;;;;;4.05;3.10;;;3.50;99.90;;;;;;5073548;28;20044;-82
2020/12/07 05:20:06;;;;;;;5.65;3.30;;;3.50;99.90;;;;;;5074012;28;20045;-82
2020/12/07 05:22:36;;;;;;;4.03;3.22;;;3.60;99.90;;;;;;5072609;28;20072;-83
2020/12/07 05:25:04;;;;;;;6.40;3.80;;;3.60;99.90;;;;;;5072722;28;20075;-82
2020/12/07 05:27:33;;;;;;;4.88;3.25;;;3.60;99.90;;;;;;5072480;28;20148;-83
2020/12/07 05:30:27;;;;;;;3.78;3.35;;;3.60;99.90;;;;;;5073058;28;20048;-83
2020/12/07 05:33:01;;;;;;;4.32;3.85;;;3.60;99.90;;;;;;5075513;28;20417;-84
2020/12/07 05:35:38;;;;;;;5.32;4.10;;;3.60;99.90;;;;;;5077342;28;20041;-83
2020/12/07 05:38:05;;;;;;;5.85;4.32;;;3.60;99.90;;;;;;5077004;28;20040;-83
2020/12/07 05:40:39;;;;;;;4.45;3.63;;;3.60;99.90;;;;;;5075456;28;20127;-82
2020/12/07 05:43:06;;;;;;;6.93;4.53;;;3.60;99.90;;;;;;5074069;28;20044;-83
2020/12/07 05:45:33;;;;;;;5.82;4.35;;;3.60;99.90;;;;;;5076161;28;20481;-83
2020/12/07 05:48:01;;;;;;;4.93;4.18;;;3.60;99.90;;;;;;5073082;28;20079;-83
2020/12/07 05:50:30;;;;;;;6.10;4.38;;;3.60;99.90;;;;;;5076345;28;20068;-83
2020/12/07 05:53:00;;;;;;;5.88;4.47;;;3.60;99.90;;;;;;5077531;28;20055;-84
2020/12/07 05:55:28;;;;;;;5.68;4.70;;;3.60;99.90;;;;;;5079610;28;20044;-83
2020/12/07 05:58:00;;;;;;;4.47;4.07;;;3.60;99.90;;;;;;5078248;28;20094;-84
2020/12/07 06:00:26;;;;;;;5.55;4.60;;;3.60;99.90;;;;;;5078300;28;20075;-84
2020/12/07 06:02:54;;;;;;;5.78;4.45;;;3.60;99.90;;;;;;5077090;28;20052;-84
2020/12/07 06:05:21;;;;;;;4.78;4.38;;;3.50;99.90;;;;;;5076187;28;20136;-83
2020/12/07 06:07:56;;;;;;;4.57;4.18;;;3.50;99.90;;;;;;5076499;28;20068;-83
2020/12/07 06:10:26;;;;;;;7.50;4.40;;;3.50;99.90;;;;;;5075397;28;20452;-83
2020/12/07 06:12:55;;;;;;;5.05;3.92;;;3.50;99.90;;;;;;5074880;28;20049;-83
2020/12/07 06:15:22;;;;;;;4.53;4.10;;;3.50;99.90;;;;;;5075344;28;20080;-83
2020/12/07 06:17:49;;;;;;;6.20;4.38;;;3.50;99.90;;;;;;5076157;28;20120;-83
2020/12/07 06:20:28;;;;;;;5.13;4.00;;;3.50;99.90;;;;;;5074540;28;20467;-84
2020/12/07 06:22:59;;;;;;;5.30;3.80;;;3.40;99.90;;;;;;5074466;28;20108;-83
2020/12/07 06:25:28;;;;;;;8.40;4.57;;;3.40;99.90;;;;;;5074587;28;20048;-83
2020/12/07 06:27:57;;;;;;;3.70;3.40;;;3.40;99.90;;;;;;5073851;28;20053;-83
2020/12/07 06:30:30;;;;;;;5.10;4.60;;;3.40;99.90;;;;;;5073733;28;20106;-81
2020/12/07 06:32:57;;;;;;;5.15;4.65;;;3.30;99.90;;;;;;5074567;28;20564;-82
2020/12/07 06:35:26;;;;;;;5.72;4.45;;;3.30;99.90;;;;;;5075326;28;20047;-84
2020/12/07 06:37:53;;;;;;;5.45;4.65;;;3.30;99.90;;;;;;5073673;28;20131;-83
2020/12/07 06:40:24;;;;;;;5.70;4.50;;;3.30;99.90;;;;;;5074930;28;20084;-83
2020/12/07 06:42:50;;;;;;;5.43;4.68;;;3.20;99.90;;;;;;5078069;28;20080;-83
2020/12/07 06:45:23;;;;;;;6.75;4.72;;;3.20;99.90;;;;;;5078372;28;20135;-83
2020/12/07 06:47:51;;;;;;;5.25;4.75;;;3.30;99.90;;;;;;5095065;28;20127;-83
2020/12/07 06:50:21;;;;;;;9.77;7.85;;;3.30;99.90;;;;;;5079018;28;20084;-83
2020/12/07 06:52:48;;;;;;;9.88;6.13;;;3.30;99.90;;;;;;5076797;28;20055;-82
2020/12/07 06:55:17;;;;;;;7.25;5.25;;;3.30;99.90;;;;;;5075361;28;20518;-84
2020/12/07 06:57:48;;;;;;;5.45;4.95;;;3.30;99.90;;;;;;5075825;28;20048;-82
2020/12/07 07:00:20;;;;;;;5.93;5.28;;;3.30;99.90;;;;;;5075792;28;20078;-83
2020/12/07 07:02:53;;;;;;;4.90;4.50;;;3.30;99.90;;;;;;5076824;28;20052;-82
2020/12/07 07:05:21;;;;;;;5.65;5.03;;;3.30;99.90;;;;;;5076281;28;20443;-83
2020/12/07 07:07:48;;;;;;;6.20;5.28;;;3.30;99.90;;;;;;5075576;28;20078;-83
2020/12/07 07:10:15;;;;;;;5.85;5.25;;;3.30;99.90;;;;;;5076135;28;20143;-83
2020/12/07 07:12:43;;;;;;;5.20;4.68;;;3.30;99.90;;;;;;5075761;28;20063;-82
2020/12/07 07:15:11;;;;;;;4.47;4.18;;;3.30;99.90;;;;;;5075121;28;20132;-83
2020/12/07 07:17:46;;;;;;;7.10;5.40;;;3.30;99.90;;;;;;5075694;28;20068;-82
2020/12/07 07:20:17;;;;;;;16.95;6.57;;;3.20;99.90;;;;;;5075376;28;20127;-83
2020/12/07 07:22:48;;;;;;;6.75;4.80;;;3.20;99.90;;;;;;5075032;28;20094;-83
2020/12/07 07:30:43;;;;;;;6.68;5.90;;;3.20;99.90;;;;;;5074577;28;20591;-82
2020/12/07 07:33:09;;;;;;;7.05;5.55;;;3.20;99.90;;;;;;5074678;28;20049;-82
2020/12/07 07:35:39;;;;;;;7.85;5.63;;;3.10;99.90;;;;;;5074600;28;20051;-82
2020/12/07 07:38:05;;;;;;;8.35;5.85;;;3.20;99.90;;;;;;5074551;28;20113;-82
2020/12/07 07:40:31;;;;;;;6.95;5.07;;;3.10;99.90;;;;;;5075826;28;20612;-83
2020/12/07 07:43:03;;;;;;;6.55;5.95;;;3.20;99.90;;;;;;5076134;28;20083;-83
2020/12/07 07:45:33;;;;;;;7.03;5.72;;;3.20;99.90;;;;;;5075497;28;20084;-83
2020/12/07 07:48:13;;;;;;;5.25;4.75;;;3.10;99.90;;;;;;5079613;28;20052;-84
2020/12/07 08:03:25;;;;;;;6.43;4.90;;;3.00;99.90;;;;;;5070938;28;20544;-82
2020/12/07 08:11:29;;;;;;;6.70;6.00;;;3.00;99.90;;;;;;5072723;28;20094;-82
2020/12/07 08:16:27;;;;;;;5.20;4.70;;;2.90;99.90;;;;;;5077454;28;20075;-82
2020/12/07 08:18:57;;;;;;;6.55;5.90;;;2.90;99.90;;;;;;5076903;28;20479;-82
2020/12/07 08:21:31;;;;;;;6.43;5.65;;;2.90;99.90;;;;;;5075963;28;20048;-82
2020/12/07 08:24:10;;;;;;;12.65;8.70;;;2.90;99.90;;;;;;5075967;28;20052;-82
2020/12/07 08:26:44;;;;;;;9.52;6.90;;;2.90;99.90;;;;;;5075179;28;20052;-82
2020/12/07 08:29:10;;;;;;;;;;;2.90;99.90;;;;;;5077291;28;20131;-82
2020/12/07 08:31:38;;;;;;;6.68;6.07;;;3.00;99.90;;;;;;5076736;28;19920;-82
2020/12/07 08:34:14;;;;;;;6.53;5.93;;;3.00;99.90;;;;;;5076509;28;20381;-82
2020/12/07 08:36:45;;;;;;;9.20;8.23;;;3.00;99.90;;;;;;5074924;28;20068;-82
2020/12/07 08:39:12;;;;;;;6.25;5.65;;;3.00;99.90;;;;;;5075683;28;20123;-82
2020/12/07 08:41:39;;;;;;;7.45;6.72;;;3.10;99.90;;;;;;5075606;28;20473;-82
2020/12/07 08:44:07;;;;;;;29.83;16.27;;;3.10;99.90;;;;;;5075635;28;20136;-82
2020/12/07 08:46:38;;;;;;;18.33;10.27;;;3.20;99.90;;;;;;5074016;28;20056;-82
2020/12/07 08:49:05;;;;;;;8.63;6.75;;;3.20;99.90;;;;;;5073584;28;20504;-82
2020/12/07 08:51:34;;;;;;;14.70;10.75;;;3.30;99.90;;;;;;5072928;28;20492;-82
2020/12/07 08:54:02;;;;;;;8.40;7.28;;;3.40;99.90;;;;;;5072611;28;20044;-82
2020/12/07 08:56:28;;;;;;;8.45;7.60;;;3.40;99.90;;;;;;5072857;28;20048;-84
2020/12/07 08:58:55;;;;;;;9.57;7.60;;;3.50;99.90;;;;;;5072510;28;20455;-82
2020/12/07 09:01:21;;;;;;;12.30;6.97;;;3.50;99.90;;;;;;5073037;28;20072;-82
2020/12/07 09:03:47;;;;;;;19.58;8.07;;;3.60;99.90;;;;;;5072653;28;20139;-82
2020/12/07 09:06:17;;;;;;;16.00;7.07;;;3.50;99.90;;;;;;5072974;28;20140;-82
2020/12/07 09:08:44;;;;;;;11.48;8.57;;;3.50;99.90;;;;;;5073956;28;20110;-82
2020/12/07 09:11:17;;;;;;;14.50;9.52;;;3.40;99.90;;;;;;5073464;28;20102;-82
2020/12/07 09:13:44;;;;;;;9.63;8.27;;;3.40;99.90;;;;;;5052800;28;20582;-82
2020/12/07 09:16:11;;;;;;;10.20;7.82;;;3.40;99.90;;;;;;5051877;28;20083;-82
2020/12/07 09:18:39;;;;;;;9.55;7.45;;;3.40;99.90;;;;;;5052404;28;20099;-82
2020/12/07 09:21:07;;;;;;;19.08;12.95;;;3.40;99.90;;;;;;5052900;28;20547;-82
2020/12/07 09:23:34;;;;;;;9.48;7.78;;;3.40;99.90;;;;;;5052600;28;20486;-82
2020/12/07 09:26:02;;;;;;;10.15;8.18;;;3.50;99.90;;;;;;5054293;28;20064;-82
2020/12/07 09:28:30;;;;;;;10.10;8.60;;;3.50;99.90;;;;;;5053144;28;20057;-82
2020/12/07 09:30:57;;;;;;;10.02;8.95;;;3.50;99.90;;;;;;5053153;28;20091;-82
2020/12/07 09:33:23;;;;;;;11.73;8.77;;;3.50;99.90;;;;;;5052936;28;20424;-82
2020/12/07 09:35:49;;;;;;;9.30;8.40;;;3.50;99.90;;;;;;5052707;28;20052;-82
2020/12/07 09:38:16;;;;;;;10.02;8.60;;;3.60;99.90;;;;;;5052639;28;20450;-82
2020/12/07 09:40:42;;;;;;;10.35;8.05;;;3.70;99.90;;;;;;5055756;28;20080;-83
2020/12/07 09:43:09;;;;;;;8.88;7.80;;;3.70;99.90;;;;;;5058294;28;20478;-82
2020/12/07 09:45:35;;;;;;;10.27;8.73;;;3.80;99.90;;;;;;5057595;28;20092;-83
2020/12/07 09:48:02;;;;;;;10.80;8.65;;;3.80;99.90;;;;;;5058406;28;20395;-83
2020/12/07 09:50:33;;;;;;;13.40;8.57;;;3.90;99.90;;;;;;5058084;28;20049;-83
2020/12/07 09:52:59;;;;;;;9.88;8.80;;;3.90;99.90;;;;;;5056222;28;20076;-82
2020/12/07 09:55:25;;;;;;;9.25;8.35;;;4.00;99.90;;;;;;5056051;28;20071;-83
2020/12/07 09:57:52;;;;;;;9.90;8.90;;;4.00;99.90;;;;;;5055729;28;20069;-83
2020/12/07 10:00:19;;;;;;;9.95;8.90;;;4.00;99.90;;;;;;5055665;28;20060;-83
2020/12/07 10:02:46;;;;;;;9.65;8.68;;;4.00;99.90;;;;;;5056486;28;20049;-82
2020/12/07 10:05:15;;;;;;;9.23;8.32;;;4.00;99.90;;;;;;5055028;28;20525;-82
2020/12/07 10:07:42;;;;;;;7.75;7.05;;;4.10;99.90;;;;;;5054876;28;20072;-82
2020/12/07 10:10:09;;;;;;;8.80;7.97;;;3.90;99.90;;;;;;5052053;28;20049;-82
2020/12/07 10:12:35;;;;;;;11.43;9.23;;;4.00;99.90;;;;;;5055262;28;20076;-82
2020/12/07 10:15:03;;;;;;;8.25;7.47;;;3.90;99.90;;;;;;5053979;28;20057;-82
2020/12/07 10:17:30;;;;;;;8.93;8.05;;;4.00;99.90;;;;;;5057529;28;20044;-83
2020/12/07 10:19:56;;;;;;;10.98;9.27;;;4.00;99.90;;;;;;5055549;28;20412;-81
2020/12/07 10:22:22;;;;;;;15.13;9.82;;;4.10;99.90;;;;;;5056342;28;20090;-82
2020/12/07 10:24:49;;;;;;;11.15;8.05;;;4.10;99.90;;;;;;5057749;28;20068;-82
2020/12/07 10:27:15;;;;;;;8.30;7.60;;;4.20;99.90;;;;;;5056042;28;20147;-82
2020/12/07 10:29:41;;;;;;;12.15;8.52;;;4.20;99.90;;;;;;5055164;28;20425;-82
2020/12/07 10:32:09;;;;;;;8.75;7.85;;;4.10;99.90;;;;;;5058467;28;20077;-82
2020/12/07 10:34:37;;;;;;;8.45;7.75;;;4.10;99.90;;;;;;5056730;28;20092;-82
2020/12/07 10:37:06;;;;;;;9.23;8.32;;;4.10;99.90;;;;;;5058148;28;20061;-82
2020/12/07 10:39:32;;;;;;;9.18;8.23;;;4.10;99.90;;;;;;5056286;28;20106;-81
2020/12/07 10:42:00;;;;;;;9.77;8.77;;;4.20;99.90;;;;;;5056406;28;20119;-82
2020/12/07 10:44:27;;;;;;;8.18;7.38;;;4.10;99.90;;;;;;5056412;28;20049;-83
2020/12/07 10:46:53;;;;;;;9.05;7.85;;;4.10;99.90;;;;;;5055762;28;20057;-82
2020/12/07 10:49:19;;;;;;;8.45;7.65;;;4.10;99.90;;;;;;5056554;28;20136;-82
2020/12/07 10:51:47;;;;;;;8.65;7.85;;;4.00;99.90;;;;;;5055515;28;20128;-82
2020/12/07 10:54:13;;;;;;;9.18;8.27;;;4.00;99.90;;;;;;5055502;28;20578;-82
2020/12/07 10:56:44;;;;;;;8.70;7.80;;;4.00;99.90;;;;;;5056858;28;20135;-82
2020/12/07 10:59:13;;;;;;;10.45;9.27;;;4.10;99.90;;;;;;5057778;28;20133;-82
2020/12/07 11:01:39;;;;;;;8.90;7.97;;;4.00;99.90;;;;;;5057436;28;20045;-82
2020/12/07 11:04:06;;;;;;;9.30;8.40;;;4.10;99.90;;;;;;5057329;28;20061;-82
2020/12/07 11:06:38;;;;;;;9.35;8.45;;;4.20;99.90;;;;;;5055832;28;20552;-82
2020/12/07 11:09:09;;;;;;;9.43;8.52;;;4.20;99.90;;;;;;5055836;28;20057;-82
2020/12/07 11:11:44;;;;;;;11.55;9.05;;;4.30;99.90;;;;;;5057638;28;20413;-82
2020/12/07 11:14:10;;;;;;;9.15;8.25;;;4.30;99.90;;;;;;5055691;28;20182;-82
2020/12/07 11:16:38;;;;;;;9.07;8.18;;;4.30;99.90;;;;;;5054982;28;20059;-82
2020/12/07 11:19:04;;;;;;;9.25;8.35;;;4.30;99.90;;;;;;5054963;28;20040;-82
2020/12/07 11:21:31;;;;;;;8.45;7.55;;;4.30;99.90;;;;;;5056848;28;20072;-82
2020/12/07 11:23:57;;;;;;;8.95;8.05;;;4.30;99.90;;;;;;5055754;28;20061;-82
2020/12/07 11:26:23;;;;;;;9.88;8.60;;;4.20;99.90;;;;;;5054752;28;20488;-82
2020/12/07 11:28:49;;;;;;;11.48;8.82;;;4.20;99.90;;;;;;5056982;28;20048;-82
2020/12/07 11:31:16;;;;;;;9.30;8.40;;;4.20;99.90;;;;;;5055691;28;20080;-83
2020/12/07 11:33:44;;;;;;;8.60;7.80;;;4.30;99.90;;;;;;5061077;28;20056;-84
2020/12/07 11:36:16;;;;;;;9.18;8.20;;;4.30;99.90;;;;;;5060356;28;20077;-83
2020/12/07 11:38:46;;;;;;;10.10;7.95;;;4.30;99.90;;;;;;5058772;28;20139;-83
2020/12/07 11:44:10;;;;;;;8.07;7.28;;;4.30;99.90;;;;;;5059448;28;20428;-84
2020/12/07 11:46:47;;;;;;;8.05;7.25;;;4.30;99.90;;;;;;5058806;28;20115;-82
2020/12/07 11:49:15;;;;;;;7.82;7.03;;;4.30;99.90;;;;;;5057311;28;20048;-83
2020/12/07 11:51:42;;;;;;;7.72;7.03;;;4.20;99.90;;;;;;5057526;28;20053;-81
2020/12/07 11:54:08;;;;;;;8.35;7.22;;;4.20;99.90;;;;;;5057957;28;20458;-82
2020/12/07 11:56:38;;;;;;;8.52;7.68;;;4.10;99.90;;;;;;5058011;28;20128;-82
2020/12/07 11:59:06;;;;;;;7.85;7.05;;;4.20;99.90;;;;;;5057183;28;20049;-83
2020/12/07 12:01:33;;;;;;;8.90;8.05;;;4.20;99.90;;;;;;5056510;28;20481;-83
2020/12/07 12:04:00;;;;;;;8.13;7.30;;;4.20;99.90;;;;;;5055254;28;20084;-83
2020/12/07 12:06:34;;;;;;;7.95;7.15;;;4.20;99.90;;;;;;5057749;28;20045;-82
2020/12/07 12:09:05;;;;;;;8.93;6.78;;;4.20;99.90;;;;;;5057280;28;20394;-82
2020/12/07 12:11:35;;;;;;;10.15;8.48;;;4.30;99.90;;;;;;5054630;28;20219;-82
2020/12/07 12:14:07;;;;;;;7.00;6.40;;;4.40;99.90;;;;;;5054919;28;20059;-82
2020/12/07 12:16:34;;;;;;;7.35;6.65;;;4.40;99.90;;;;;;5055194;28;20148;-81
2020/12/07 12:19:05;;;;;;;7.70;6.90;;;4.40;99.90;;;;;;5054974;28;20490;-82
2020/12/07 12:21:31;;;;;;;6.68;6.07;;;4.50;99.90;;;;;;5055797;28;20080;-83
2020/12/07 12:24:01;;;;;;;6.43;5.82;;;4.50;99.90;;;;;;5055981;28;20045;-81
2020/12/07 12:26:28;;;;;;;8.07;6.68;;;4.50;99.90;;;;;;5054750;28;20524;-82
2020/12/07 12:28:58;;;;;;;6.60;6.00;;;4.50;99.90;;;;;;5054073;28;20076;-82
2020/12/07 12:31:24;;;;;;;6.47;5.85;;;4.50;99.90;;;;;;5053786;28;20056;-82
2020/12/07 12:33:53;;;;;;;6.93;6.22;;;4.40;99.90;;;;;;5055377;28;20045;-82
2020/12/07 12:36:21;;;;;;;6.43;5.85;;;4.40;99.90;;;;;;5055382;28;20041;-82
2020/12/07 12:38:48;;;;;;;6.35;5.75;;;4.30;99.90;;;;;;5053745;28;20051;-81
2020/12/07 12:41:15;;;;;;;5.68;5.18;;;4.40;99.90;;;;;;5055321;28;20081;-82
2020/12/07 12:43:44;;;;;;;6.32;5.70;;;4.30;99.90;;;;;;5055369;28;20045;-82
2020/12/07 12:46:10;;;;;;;6.53;5.93;;;4.30;99.90;;;;;;5055536;28;20088;-82
2020/12/07 12:48:38;;;;;;;6.30;5.70;;;4.30;99.90;;;;;;5053211;28;20409;-82
2020/12/07 12:51:07;;;;;;;6.57;5.97;;;4.30;99.90;;;;;;5054928;28;20135;-82
2020/12/07 12:53:36;;;;;;;8.48;7.15;;;4.30;99.90;;;;;;5055196;28;20509;-82
2020/12/07 12:56:06;;;;;;;7.82;6.68;;;4.30;99.90;;;;;;5054296;28;20460;-82
2020/12/07 12:58:34;;;;;;;6.97;6.28;;;4.20;99.90;;;;;;5053196;28;20048;-82
2020/12/07 13:01:02;;;;;;;7.25;6.55;;;4.20;99.90;;;;;;5053996;28;20049;-82
2020/12/07 13:03:28;;;;;;;7.40;6.65;;;4.20;99.90;;;;;;5054988;28;20092;-82
2020/12/07 13:05:54;;;;;;;8.13;6.90;;;4.20;99.90;;;;;;5053154;28;20497;-82
2020/12/07 13:08:21;;;;;;;9.20;7.80;;;4.10;99.90;;;;;;5053974;28;20405;-82
2020/12/07 13:10:49;;;;;;;9.75;7.72;;;4.10;99.90;;;;;;5053957;28;20052;-82
2020/12/07 13:13:16;;;;;;;8.90;8.00;;;4.10;99.90;;;;;;5053418;28;20084;-82
2020/12/07 13:15:50;;;;;;;10.20;7.97;;;4.00;99.90;;;;;;5052981;28;20056;-82
2020/12/07 13:18:17;;;;;;;11.10;8.32;;;4.10;99.90;;;;;;5054140;28;20079;-82
2020/12/07 13:24:04;;;;;;;8.73;7.82;;;4.00;99.90;;;;;;5054446;28;20108;-84
2020/12/07 13:26:40;;;;;;;8.95;7.40;;;4.00;99.90;;;;;;5059065;28;20452;-83